createdAt,value
2022-08-16T00:00:44.380Z,47.15
2022-08-16T00:03:30.334Z,47.27
2022-08-16T00:06:23.736Z,47.27
2022-08-16T00:09:11.039Z,47.36
2022-08-16T00:11:57.066Z,47.28
2022-08-16T00:14:45.301Z,47.27
2022-08-16T00:17:56.601Z,47.29
2022-08-16T00:20:39.454Z,47.34
2022-08-16T00:23:34.823Z,47.39
2022-08-16T00:26:35.609Z,47.38
2022-08-16T00:29:24.630Z,47.30
2022-08-16T00:32:11.421Z,47.49
2022-08-16T00:35:04.958Z,47.59
2022-08-16T00:38:03.603Z,47.50
2022-08-16T00:41:09.733Z,47.72
2022-08-16T00:43:58.915Z,47.62
2022-08-16T00:47:02.207Z,47.85
2022-08-16T00:49:56.503Z,47.68
2022-08-16T00:52:45.968Z,47.59
2022-08-16T00:55:40.573Z,47.80
2022-08-16T00:58:32.273Z,47.93
2022-08-16T01:01:21.637Z,48.01
2022-08-16T01:04:29.125Z,48.11
2022-08-16T01:07:17.720Z,48.06
2022-08-16T01:10:04.591Z,48.22
2022-08-16T01:13:12.123Z,48.14
2022-08-16T01:16:10.327Z,48.04
2022-08-16T01:19:04.464Z,48.12
2022-08-16T01:22:48.691Z,48.07
2022-08-16T01:25:09.250Z,48.26
2022-08-16T01:27:57.921Z,48.37
2022-08-16T01:30:50.399Z,48.26
2022-08-16T01:33:37.212Z,48.19
2022-08-16T01:36:26.621Z,48.09
2022-08-16T01:40:32.459Z,48.78
2022-08-16T01:43:25.722Z,48.48
2022-08-16T01:46:39.251Z,48.55
2022-08-16T01:49:45.719Z,48.49
2022-08-16T01:52:40.635Z,48.29
2022-08-16T01:55:54.090Z,48.54
2022-08-16T01:58:41.439Z,48.47
2022-08-16T02:01:36.981Z,48.41
2022-08-16T02:04:48.583Z,48.53
2022-08-16T02:07:31.338Z,48.71
2022-08-16T02:10:18.007Z,48.71
2022-08-16T02:13:08.329Z,48.82
2022-08-16T02:15:54.428Z,48.63
2022-08-16T02:18:41.088Z,48.83
2022-08-16T02:21:31.276Z,48.83
2022-08-16T02:24:31.712Z,48.75
2022-08-16T02:27:19.346Z,48.92
2022-08-16T02:30:07.829Z,48.93
2022-08-16T02:32:54.255Z,48.79
2022-08-16T02:35:54.542Z,48.84
2022-08-16T02:38:46.958Z,48.88
2022-08-16T02:41:34.169Z,48.95
2022-08-16T02:44:27.052Z,48.97
2022-08-16T02:47:25.369Z,48.93
2022-08-16T02:50:54.952Z,48.81
2022-08-16T02:53:23.413Z,48.94
2022-08-16T02:56:14.903Z,48.90
2022-08-16T02:59:02.268Z,48.98
2022-08-16T03:01:57.739Z,49.04
2022-08-16T03:04:52.390Z,48.84
2022-08-16T03:07:41.189Z,48.76
2022-08-16T03:10:37.013Z,48.96
2022-08-16T03:13:25.823Z,49.08
2022-08-16T03:16:33.094Z,48.98
2022-08-16T03:19:19.491Z,48.67
2022-08-16T03:22:08.965Z,48.86
2022-08-16T03:24:58.305Z,48.91
2022-08-16T03:27:44.514Z,48.91
2022-08-16T03:30:36.515Z,48.95
2022-08-16T03:33:25.432Z,49.07
2022-08-16T03:36:30.188Z,49.07
2022-08-16T03:39:22.398Z,49.19
2022-08-16T03:42:09.687Z,49.04
2022-08-16T03:45:03.697Z,49.00
2022-08-16T03:47:58.570Z,49.05
2022-08-16T03:50:59.877Z,49.06
2022-08-16T03:54:01.400Z,49.08
2022-08-16T03:56:57.547Z,49.16
2022-08-16T03:59:47.887Z,49.27
2022-08-16T04:02:36.960Z,48.97
2022-08-16T04:05:30.508Z,49.28
2022-08-16T04:08:24.249Z,49.21
2022-08-16T04:11:16.388Z,49.10
2022-08-16T04:14:30.784Z,49.22
2022-08-16T04:17:12.173Z,49.26
2022-08-16T04:19:59.912Z,49.24
2022-08-16T04:22:48.877Z,49.16
2022-08-16T04:25:36.819Z,49.27
2022-08-16T04:28:29.310Z,49.24
2022-08-16T04:31:33.557Z,49.02
2022-08-16T04:34:25.045Z,49.31
2022-08-16T04:37:12.965Z,49.17
2022-08-16T04:40:05.655Z,49.04
2022-08-16T04:42:52.422Z,49.01
2022-08-16T04:45:43.288Z,49.19
2022-08-16T04:48:34.121Z,49.14
2022-08-16T04:51:35.995Z,49.30
2022-08-16T04:54:23.331Z,49.21
2022-08-16T04:57:09.352Z,49.23
2022-08-16T04:59:55.431Z,49.35
2022-08-16T05:02:42.869Z,49.43
2022-08-16T05:05:32.675Z,49.21
2022-08-16T05:08:28.770Z,49.28
2022-08-16T05:11:22.522Z,49.11
2022-08-16T05:14:09.198Z,49.26
2022-08-16T05:16:57.530Z,49.70
2022-08-16T05:19:46.610Z,49.45
2022-08-16T05:22:46.465Z,49.35
2022-08-16T05:25:41.089Z,49.25
2022-08-16T05:28:37.682Z,49.37
2022-08-16T05:31:29.851Z,49.44
2022-08-16T05:34:21.455Z,49.43
2022-08-16T05:37:12.764Z,49.45
2022-08-16T05:40:06.295Z,49.44
2022-08-16T05:42:56.127Z,49.46
2022-08-16T05:45:44.596Z,49.62
2022-08-16T05:48:38.336Z,49.70
2022-08-16T05:51:35.268Z,49.65
2022-08-16T05:54:28.004Z,49.65
2022-08-16T05:57:22.144Z,49.50
2022-08-16T06:00:12.781Z,49.50
2022-08-16T06:03:13.262Z,49.62
2022-08-16T06:06:15.681Z,49.55
2022-08-16T06:09:16.936Z,49.69
2022-08-16T06:12:04.750Z,49.57
2022-08-16T06:15:07.583Z,49.64
2022-08-16T06:17:55.203Z,49.59
2022-08-16T06:20:55.479Z,49.49
2022-08-16T06:23:44.270Z,49.54
2022-08-16T06:26:37.048Z,49.57
2022-08-16T06:29:26.658Z,49.58
2022-08-16T06:32:26.193Z,49.73
2022-08-16T06:35:16.607Z,49.57
2022-08-16T06:38:05.283Z,49.59
2022-08-16T06:41:20.554Z,49.58
2022-08-16T06:44:20.953Z,49.56
2022-08-16T06:47:16.894Z,49.69
2022-08-16T06:50:04.300Z,49.57
2022-08-16T06:53:08.678Z,49.51
2022-08-16T06:56:13.979Z,49.47
2022-08-16T06:59:15.394Z,49.50
2022-08-16T07:02:32.525Z,49.43
2022-08-16T07:05:17.725Z,49.12
2022-08-16T07:08:17.810Z,49.22
2022-08-16T07:11:05.682Z,49.05
2022-08-16T07:14:00.233Z,48.86
2022-08-16T07:17:08.429Z,48.86
2022-08-16T07:20:35.517Z,48.78
2022-08-16T07:23:57.919Z,49.22
2022-08-16T07:26:55.305Z,48.83
2022-08-16T07:29:41.332Z,49.05
2022-08-16T07:32:29.706Z,48.70
2022-08-16T07:35:20.154Z,48.82
2022-08-16T07:38:07.411Z,49.04
2022-08-16T07:41:12.846Z,48.84
2022-08-16T07:44:19.090Z,49.37
2022-08-16T07:47:08.072Z,48.79
2022-08-16T07:54:37.743Z,48.86
2022-08-16T07:57:28.219Z,48.75
2022-08-16T08:00:18.988Z,48.57
2022-08-16T08:03:10.732Z,48.28
2022-08-16T08:05:58.155Z,48.29
2022-08-16T08:08:51.564Z,48.11
2022-08-16T08:11:41.309Z,48.22
2022-08-16T08:14:50.930Z,48.17
2022-08-16T08:17:42.252Z,48.07
2022-08-16T08:20:33.693Z,47.87
2022-08-16T08:23:21.215Z,47.81
2022-08-16T08:26:17.376Z,47.62
2022-08-16T08:29:14.539Z,47.58
2022-08-16T08:32:58.072Z,47.30
2022-08-16T08:35:27.073Z,47.56
2022-08-16T08:38:16.962Z,47.30
2022-08-16T08:41:29.462Z,47.14
2022-08-16T08:44:29.157Z,47.19
2022-08-16T08:47:22.938Z,47.32
2022-08-16T08:50:09.770Z,47.31
2022-08-16T08:52:56.054Z,47.22
2022-08-16T08:55:42.799Z,47.26
2022-08-16T08:58:34.238Z,47.19
2022-08-16T09:01:58.611Z,47.15
2022-08-16T09:04:55.628Z,46.65
2022-08-16T09:07:54.722Z,46.37
2022-08-16T09:11:02.922Z,46.36
2022-08-16T09:13:51.113Z,46.19
2022-08-16T09:17:01.278Z,45.85
2022-08-16T09:19:45.769Z,45.65
2022-08-16T09:22:31.707Z,45.33
2022-08-16T09:25:25.849Z,45.12
2022-08-16T09:28:13.661Z,44.90
2022-08-16T09:31:28.380Z,44.70
2022-08-16T09:34:19.426Z,44.53
2022-08-16T09:37:17.536Z,44.48
2022-08-16T09:40:32.894Z,44.30
2022-08-16T09:43:44.722Z,43.89
2022-08-16T09:46:33.455Z,43.39
2022-08-16T09:49:37.108Z,43.19
2022-08-16T09:52:23.255Z,42.81
2022-08-16T09:55:12.637Z,42.80
2022-08-16T09:57:59.578Z,42.34
2022-08-16T10:00:45.875Z,42.20
2022-08-16T10:03:32.416Z,42.31
2022-08-16T10:06:21.671Z,42.16
2022-08-16T10:09:11.209Z,42.25
2022-08-16T10:12:19.589Z,42.13
2022-08-16T10:15:08.866Z,42.12
2022-08-16T10:18:56.124Z,42.03
2022-08-16T10:21:16.916Z,42.00
2022-08-16T10:24:04.828Z,41.94
2022-08-16T10:27:18.289Z,41.97
2022-08-16T10:30:06.545Z,41.69
2022-08-16T10:33:07.306Z,41.96
2022-08-16T10:35:53.479Z,42.07
2022-08-16T10:38:40.650Z,42.02
2022-08-16T10:41:28.401Z,41.84
2022-08-16T10:44:17.628Z,41.99
2022-08-16T10:47:04.725Z,41.69
2022-08-16T10:49:55.851Z,41.61
2022-08-16T10:52:42.180Z,41.53
2022-08-16T10:55:45.565Z,41.74
2022-08-16T10:58:37.699Z,41.84
2022-08-16T11:01:39.876Z,41.58
2022-08-16T11:07:51.447Z,41.74
2022-08-16T11:11:04.670Z,41.29
2022-08-16T11:14:11.476Z,41.37
2022-08-16T11:17:10.503Z,41.82
2022-08-16T11:20:36.747Z,41.42
2022-08-16T11:23:03.670Z,41.38
2022-08-16T11:26:20.607Z,41.32
2022-08-16T11:29:15.106Z,41.36
2022-08-16T11:32:05.052Z,41.50
2022-08-16T11:35:10.273Z,41.67
2022-08-16T11:38:47.266Z,41.67
2022-08-16T11:41:16.718Z,41.60
2022-08-16T11:44:03.441Z,41.77
2022-08-16T11:46:50.307Z,41.46
2022-08-16T11:49:39.798Z,41.82
2022-08-16T11:52:27.835Z,41.92
2022-08-16T11:55:14.160Z,41.55
2022-08-16T11:58:02.006Z,41.92
2022-08-16T12:00:51.934Z,41.79
2022-08-16T12:03:41.801Z,41.98
2022-08-16T12:06:30.906Z,42.02
2022-08-16T12:09:19.980Z,41.92
2022-08-16T12:12:06.534Z,42.00
2022-08-16T12:14:59.814Z,42.01
2022-08-16T12:17:48.830Z,41.88
2022-08-16T12:20:39.782Z,41.94
2022-08-16T12:23:26.846Z,41.86
2022-08-16T12:26:13.217Z,42.11
2022-08-16T12:29:01.845Z,42.06
2022-08-16T12:32:00.435Z,41.87
2022-08-16T12:34:55.796Z,41.95
2022-08-16T12:37:42.767Z,41.89
2022-08-16T12:40:36.468Z,41.89
2022-08-16T12:43:31.255Z,41.64
2022-08-16T12:46:17.172Z,41.64
2022-08-16T12:49:05.819Z,41.46
2022-08-16T12:51:58.730Z,41.43
2022-08-16T12:54:54.846Z,41.30
2022-08-16T12:57:41.953Z,41.02
2022-08-16T13:00:33.480Z,40.62
2022-08-16T13:03:21.668Z,40.62
2022-08-16T13:06:08.829Z,40.45
2022-08-16T13:08:55.836Z,39.99
2022-08-16T13:11:58.039Z,39.64
2022-08-16T13:14:47.716Z,39.06
2022-08-16T13:17:38.240Z,38.40
2022-08-16T13:20:30.675Z,38.05
2022-08-16T13:23:18.273Z,37.94
2022-08-16T13:26:05.102Z,38.08
2022-08-16T13:28:57.916Z,38.45
2022-08-16T13:31:51.153Z,38.67
2022-08-16T13:34:38.320Z,38.87
2022-08-16T13:37:24.257Z,38.89
2022-08-16T13:40:19.605Z,39.16
2022-08-16T13:43:06.230Z,39.27
2022-08-16T13:45:58.495Z,39.40
2022-08-16T13:48:48.723Z,39.41
2022-08-16T13:51:34.683Z,39.45
2022-08-16T13:54:28.610Z,39.43
2022-08-16T13:57:20.605Z,39.33
2022-08-16T14:00:09.622Z,39.46
2022-08-16T14:02:59.152Z,39.28
2022-08-16T14:08:58.821Z,39.70
2022-08-16T14:11:53.292Z,39.64
2022-08-16T14:14:39.891Z,39.72
2022-08-16T14:17:27.371Z,39.49
2022-08-16T14:20:14.500Z,39.49
2022-08-16T14:23:06.359Z,39.55
2022-08-16T14:25:54.132Z,39.43
2022-08-16T14:28:40.597Z,38.78
2022-08-16T14:31:29.380Z,38.20
2022-08-16T14:34:16.976Z,37.81
2022-08-16T14:37:05.694Z,36.77
2022-08-16T14:39:51.850Z,36.21
2022-08-16T14:42:38.632Z,35.39
2022-08-16T14:45:27.157Z,34.62
2022-08-16T14:48:13.133Z,33.66
2022-08-16T14:50:59.826Z,33.28
2022-08-16T14:53:49.771Z,32.83
2022-08-16T14:56:42.982Z,32.62
2022-08-16T14:59:41.299Z,32.52
2022-08-16T15:02:34.222Z,32.53
2022-08-16T15:05:22.734Z,32.17
2022-08-16T15:08:10.469Z,31.15
2022-08-16T15:10:56.596Z,30.51
2022-08-16T15:13:42.579Z,29.66
2022-08-16T15:16:29.722Z,29.23
2022-08-16T15:19:15.808Z,28.34
2022-08-16T15:22:04.351Z,28.05
2022-08-16T15:24:53.073Z,27.49
2022-08-16T15:27:45.993Z,27.21
2022-08-16T15:30:44.768Z,27.07
2022-08-16T15:33:56.550Z,26.64
2022-08-16T15:36:44.583Z,26.38
2022-08-16T15:39:38.803Z,26.31
2022-08-16T15:42:28.754Z,25.76
2022-08-16T15:45:35.209Z,25.97
2022-08-16T15:48:22.261Z,25.75
2022-08-16T15:51:15.321Z,25.95
2022-08-16T15:54:21.510Z,26.13
2022-08-16T15:57:11.801Z,26.35
2022-08-16T16:00:04.840Z,26.71
2022-08-16T16:03:08.705Z,27.14
2022-08-16T16:06:01.128Z,27.73
2022-08-16T16:08:47.939Z,28.08
2022-08-16T16:11:38.427Z,28.55
2022-08-16T16:14:24.690Z,28.50
2022-08-16T16:17:17.293Z,29.19
2022-08-16T16:20:05.263Z,29.23
2022-08-16T16:23:02.497Z,30.03
2022-08-16T16:25:50.258Z,30.19
2022-08-16T16:29:05.716Z,30.59
2022-08-16T16:31:59.458Z,30.68
2022-08-16T16:34:50.448Z,31.03
2022-08-16T16:37:39.513Z,31.50
2022-08-16T16:40:46.589Z,32.07
2022-08-16T16:43:43.283Z,32.06
2022-08-16T16:46:42.074Z,32.51
2022-08-16T16:49:29.854Z,32.65
2022-08-16T16:52:31.379Z,32.83
2022-08-16T16:55:25.148Z,33.06
2022-08-16T16:58:35.582Z,33.00
2022-08-16T17:01:41.364Z,33.03
2022-08-16T17:04:32.545Z,33.22
2022-08-16T17:07:25.312Z,33.42
2022-08-16T17:10:14.243Z,33.57
2022-08-16T17:13:22.430Z,33.87
2022-08-16T17:16:08.764Z,34.13
2022-08-16T17:19:16.282Z,33.95
2022-08-16T17:22:06.525Z,34.36
2022-08-16T17:25:01.404Z,34.18
2022-08-16T17:27:50.772Z,34.51
2022-08-16T17:30:44.993Z,34.58
2022-08-16T17:33:36.835Z,34.59
2022-08-16T17:36:36.399Z,34.86
2022-08-16T17:39:23.661Z,34.99
2022-08-16T17:42:19.117Z,35.04
2022-08-16T17:45:06.302Z,35.23
2022-08-16T17:47:53.082Z,35.58
2022-08-16T17:50:40.454Z,35.87
2022-08-16T17:53:26.387Z,35.86
2022-08-16T17:56:13.211Z,36.09
2022-08-16T17:58:59.941Z,36.27
2022-08-16T18:01:46.417Z,36.58
2022-08-16T18:04:49.083Z,36.76
2022-08-16T18:07:37.474Z,36.78
2022-08-16T18:10:32.651Z,37.12
2022-08-16T18:13:19.810Z,36.94
2022-08-16T18:16:07.491Z,37.49
2022-08-16T18:18:53.219Z,37.39
2022-08-16T18:21:59.718Z,37.75
2022-08-16T18:24:47.118Z,38.00
2022-08-16T18:27:33.337Z,37.98
2022-08-16T18:30:19.401Z,38.11
2022-08-16T18:33:06.012Z,38.36
2022-08-16T18:35:57.437Z,38.53
2022-08-16T18:38:43.746Z,38.41
2022-08-16T18:41:30.799Z,38.78
2022-08-16T18:44:26.669Z,38.83
2022-08-16T18:47:14.877Z,38.85
2022-08-16T18:50:01.076Z,38.91
2022-08-16T18:52:58.524Z,38.96
2022-08-16T18:55:45.951Z,39.17
2022-08-16T18:58:34.101Z,39.19
2022-08-16T19:01:20.424Z,39.32
2022-08-16T19:04:06.367Z,39.63
2022-08-16T19:07:13.784Z,39.63
2022-08-16T19:10:05.459Z,39.94
2022-08-16T19:12:51.460Z,39.84
2022-08-16T19:15:41.167Z,39.88
2022-08-16T19:18:28.419Z,40.24
2022-08-16T19:21:25.190Z,40.26
2022-08-16T19:24:17.841Z,40.62
2022-08-16T19:27:06.025Z,40.63
2022-08-16T19:29:53.619Z,41.00
2022-08-16T19:32:40.282Z,41.06
2022-08-16T19:35:26.410Z,41.27
2022-08-16T19:38:12.639Z,41.19
2022-08-16T19:40:58.675Z,41.58
2022-08-16T19:43:44.497Z,41.41
2022-08-16T19:46:30.973Z,41.84
2022-08-16T19:49:17.592Z,41.79
2022-08-16T19:52:34.106Z,42.60
2022-08-16T19:55:22.748Z,42.16
2022-08-16T19:58:13.178Z,42.29
2022-08-16T20:00:59.425Z,42.24
2022-08-16T20:03:46.025Z,42.54
2022-08-16T20:06:38.513Z,42.53
2022-08-16T20:09:25.074Z,42.69
2022-08-16T20:12:14.471Z,42.55
2022-08-16T20:15:00.417Z,42.80
2022-08-16T20:17:48.483Z,42.88
2022-08-16T20:20:34.814Z,43.06
2022-08-16T20:23:25.009Z,43.07
2022-08-16T20:26:12.132Z,43.20
2022-08-16T20:28:58.671Z,43.32
2022-08-16T20:31:45.772Z,43.33
2022-08-16T20:34:31.638Z,43.45
2022-08-16T20:37:18.113Z,43.53
2022-08-16T20:40:28.290Z,43.64
2022-08-16T20:43:17.176Z,43.70
2022-08-16T20:46:03.721Z,43.98
2022-08-16T20:48:49.959Z,43.89
2022-08-16T20:51:46.979Z,44.07
2022-08-16T20:54:40.500Z,45.20
2022-08-16T20:57:26.192Z,44.03
2022-08-16T21:00:14.021Z,44.12
2022-08-16T21:03:01.280Z,44.02
2022-08-16T21:05:47.403Z,44.24
2022-08-16T21:08:52.220Z,44.36
2022-08-16T21:11:40.231Z,44.37
2022-08-16T21:14:27.500Z,44.54
2022-08-16T21:17:16.131Z,44.62
2022-08-16T21:20:02.225Z,44.67
2022-08-16T21:23:01.188Z,45.02
2022-08-16T21:25:58.088Z,44.77
2022-08-16T21:28:49.850Z,44.86
2022-08-16T21:31:35.715Z,45.03
2022-08-16T21:34:21.717Z,44.96
2022-08-16T21:37:08.112Z,45.14
2022-08-16T21:39:53.862Z,45.18
2022-08-16T21:42:41.861Z,45.09
2022-08-16T21:45:28.127Z,45.42
2022-08-16T21:48:14.419Z,45.51
2022-08-16T21:51:00.404Z,45.60
2022-08-16T21:53:46.762Z,45.76
2022-08-16T21:56:32.828Z,45.84
2022-08-16T21:59:18.794Z,46.00
2022-08-16T22:02:05.424Z,45.87
2022-08-16T22:04:51.756Z,45.86
2022-08-16T22:07:38.970Z,45.99
2022-08-16T22:11:05.651Z,46.00
2022-08-16T22:13:32.277Z,46.16
2022-08-16T22:16:18.157Z,46.22
2022-08-16T22:19:04.909Z,46.22
2022-08-16T22:21:51.734Z,46.34
2022-08-16T22:24:38.170Z,46.43
2022-08-16T22:27:24.291Z,46.52
2022-08-16T22:30:14.311Z,46.69
2022-08-16T22:33:00.546Z,46.75
2022-08-16T22:35:49.830Z,46.86
2022-08-16T22:38:54.865Z,46.84
2022-08-16T22:41:43.374Z,46.88
2022-08-16T22:44:29.120Z,46.98
2022-08-16T22:47:15.320Z,46.97
2022-08-16T22:50:01.403Z,46.88
2022-08-16T22:52:56.571Z,47.05
2022-08-16T22:55:49.545Z,47.26
2022-08-16T22:58:37.081Z,47.25
2022-08-16T23:01:25.854Z,47.24
2022-08-16T23:04:11.791Z,47.38
2022-08-16T23:06:59.064Z,47.46
2022-08-16T23:09:44.827Z,47.46
2022-08-16T23:12:31.105Z,47.32
2022-08-16T23:15:17.306Z,47.49
2022-08-16T23:18:03.424Z,47.55
2022-08-16T23:20:49.618Z,47.66
2022-08-16T23:23:36.123Z,47.54
2022-08-16T23:26:36.479Z,47.68
2022-08-16T23:29:32.789Z,47.78
2022-08-16T23:32:18.512Z,47.79
2022-08-16T23:35:04.660Z,47.94
2022-08-16T23:37:51.874Z,48.01
2022-08-16T23:40:38.515Z,48.14
2022-08-16T23:43:26.489Z,48.05
2022-08-16T23:46:17.710Z,48.04
2022-08-16T23:49:58.987Z,48.02
2022-08-16T23:52:10.737Z,48.22
2022-08-16T23:54:56.603Z,48.32
2022-08-16T23:57:42.454Z,48.22
